Time;durP1;ratioP1;P1;durP2;ratioP2;P2;SDS_P1;SDS_P2;PMS_P1;PMS_P2;Temp;Humidity;BMP_temperature;BMP_pressure;BME280_temperature;BME280_humidity;BME280_pressure;Samples;Min_cycle;Max_cycle;Signal;HPM_P1;HPM_P2
2024/01/17 00:01:54;;;;;;;9.90;6.30;;;0.80;1.00;;;;;;5093183;28;20286;-82
2024/01/17 00:04:20;;;;;;;13.43;6.87;;;0.80;1.00;;;;;;5093769;28;20186;-83
2024/01/17 00:06:45;;;;;;;11.93;6.47;;;0.80;1.00;;;;;;5092530;28;20175;-83
2024/01/17 00:09:12;;;;;;;9.93;6.80;;;0.70;1.00;;;;;;5093467;28;20206;-84
2024/01/17 00:11:38;;;;;;;9.27;6.17;;;0.70;1.00;;;;;;5091683;28;20176;-85
2024/01/17 00:14:03;;;;;;;10.07;6.13;;;0.70;1.00;;;;;;5092726;28;20176;-84
2024/01/17 00:16:29;;;;;;;9.90;5.80;;;0.60;1.00;;;;;;5092401;28;20254;-83
2024/01/17 00:18:55;;;;;;;12.17;7.10;;;0.60;1.00;;;;;;5093092;28;20272;-84
2024/01/17 00:21:21;;;;;;;9.00;6.53;;;0.60;1.00;;;;;;5092612;28;20580;-84
2024/01/17 00:23:46;;;;;;;9.63;6.30;;;0.60;1.00;;;;;;5093140;28;20242;-84
2024/01/17 00:26:12;;;;;;;10.70;6.67;;;0.60;1.00;;;;;;5093453;28;20176;-83
2024/01/17 00:28:38;;;;;;;8.93;6.43;;;0.60;1.00;;;;;;5091679;28;20175;-83
2024/01/17 00:31:04;;;;;;;10.27;6.40;;;0.80;1.00;;;;;;5093392;28;20646;-82
2024/01/17 00:33:30;;;;;;;9.57;6.57;;;0.70;1.00;;;;;;5093077;28;20175;-84
2024/01/17 00:35:55;;;;;;;10.87;6.90;;;0.70;1.00;;;;;;5092557;28;20182;-84
2024/01/17 00:38:21;;;;;;;10.07;5.87;;;0.80;1.00;;;;;;5108912;28;20201;-84
2024/01/17 00:40:47;;;;;;;7.83;6.37;;;0.80;1.00;;;;;;5111822;28;20172;-84
2024/01/17 00:43:16;;;;;;;11.63;6.90;;;0.80;1.00;;;;;;5097504;28;20223;-83
2024/01/17 00:45:49;;;;;;;8.20;6.00;;;0.90;1.00;;;;;;5093402;28;20179;-83
2024/01/17 00:48:14;;;;;;;8.37;6.50;;;1.10;1.00;;;;;;5091949;28;20534;-84
2024/01/17 00:50:40;;;;;;;8.77;6.40;;;1.10;1.00;;;;;;5092371;28;20172;-84
2024/01/17 00:53:06;;;;;;;10.07;6.57;;;1.00;1.00;;;;;;5092285;28;20254;-83
2024/01/17 00:55:32;;;;;;;8.47;5.77;;;0.80;1.00;;;;;;5092151;28;20181;-84
2024/01/17 00:57:58;;;;;;;10.03;6.23;;;0.60;1.00;;;;;;5091946;28;20550;-84
2024/01/17 01:00:23;;;;;;;9.73;6.40;;;0.50;1.00;;;;;;5092071;28;20167;-83
2024/01/17 01:02:51;;;;;;;8.53;5.87;;;0.50;1.00;;;;;;5091883;28;20260;-84
2024/01/17 01:05:17;;;;;;;11.10;6.53;;;0.40;1.00;;;;;;5092153;28;20213;-84
2024/01/17 01:07:43;;;;;;;12.10;6.07;;;0.40;1.00;;;;;;5092038;28;20172;-84
2024/01/17 01:10:09;;;;;;;11.77;6.03;;;0.40;1.00;;;;;;5092784;28;20175;-84
2024/01/17 01:12:35;;;;;;;8.63;5.57;;;0.40;1.00;;;;;;5093672;28;20183;-83
2024/01/17 01:15:01;;;;;;;6.63;5.10;;;0.60;1.00;;;;;;5092248;28;20627;-83
2024/01/17 01:17:27;;;;;;;7.93;5.97;;;0.50;1.00;;;;;;5091225;28;20217;-84
2024/01/17 01:19:55;;;;;;;9.80;5.30;;;0.50;1.00;;;;;;5092737;28;20631;-84
2024/01/17 01:22:21;;;;;;;8.93;5.97;;;0.50;1.00;;;;;;5091676;28;20207;-84
2024/01/17 01:24:47;;;;;;;7.67;4.90;;;0.50;1.00;;;;;;5092171;28;20167;-82
2024/01/17 01:27:12;;;;;;;8.60;6.27;;;0.50;1.00;;;;;;5091968;28;20173;-84
2024/01/17 01:29:38;;;;;;;9.03;5.97;;;0.50;1.00;;;;;;5093063;28;20561;-84
2024/01/17 01:32:04;;;;;;;13.50;6.23;;;0.40;1.00;;;;;;5092391;28;20631;-83
2024/01/17 01:34:29;;;;;;;9.23;5.93;;;0.40;1.00;;;;;;5091466;28;20258;-83
2024/01/17 01:36:55;;;;;;;8.40;5.50;;;0.40;1.00;;;;;;5091587;28;20240;-83
2024/01/17 01:39:20;;;;;;;10.17;5.07;;;0.40;1.00;;;;;;5092131;28;20631;-84
2024/01/17 01:41:46;;;;;;;7.43;5.30;;;0.40;1.00;;;;;;5091760;28;20163;-84
2024/01/17 01:44:11;;;;;;;8.33;5.43;;;0.40;1.00;;;;;;5092176;28;20175;-83
2024/01/17 01:46:38;;;;;;;9.70;5.40;;;0.40;1.00;;;;;;5091848;28;20171;-84
2024/01/17 01:49:04;;;;;;;9.43;5.90;;;0.40;1.00;;;;;;5091408;28;20181;-85
2024/01/17 01:51:29;;;;;;;7.63;5.10;;;0.40;1.00;;;;;;5090959;28;20612;-83
2024/01/17 01:54:01;;;;;;;9.60;5.67;;;0.40;1.00;;;;;;5092095;28;20241;-84
2024/01/17 01:56:31;;;;;;;10.50;5.70;;;0.40;1.00;;;;;;5091809;28;20659;-82
2024/01/17 01:58:58;;;;;;;8.77;5.17;;;0.40;1.00;;;;;;5091199;28;20173;-84
2024/01/17 02:01:27;;;;;;;8.70;5.73;;;0.40;1.00;;;;;;5091748;28;20220;-83
2024/01/17 02:03:55;;;;;;;8.10;5.77;;;0.40;1.00;;;;;;5091721;28;20683;-83
2024/01/17 02:06:22;;;;;;;12.03;5.83;;;0.50;1.00;;;;;;5091815;28;20167;-83
2024/01/17 02:08:50;;;;;;;7.60;5.23;;;0.50;1.00;;;;;;5096050;28;20179;-84
2024/01/17 02:11:17;;;;;;;7.23;5.67;;;0.50;1.00;;;;;;5095013;28;20274;-84
2024/01/17 02:13:44;;;;;;;9.00;5.50;;;0.50;1.00;;;;;;5094345;28;20171;-83
2024/01/17 02:16:10;;;;;;;9.50;5.33;;;0.40;1.00;;;;;;5096502;28;20285;-83
2024/01/17 02:18:35;;;;;;;11.43;5.70;;;0.30;1.00;;;;;;5095836;28;20230;-83
2024/01/17 02:21:01;;;;;;;9.10;6.17;;;0.30;1.00;;;;;;5104268;28;20152;-84
2024/01/17 02:23:28;;;;;;;8.27;6.10;;;0.30;1.00;;;;;;5115645;28;20218;-84
2024/01/17 02:25:56;;;;;;;10.30;6.03;;;0.40;1.00;;;;;;5103117;28;20167;-83
2024/01/17 02:28:22;;;;;;;9.33;5.63;;;0.40;1.00;;;;;;5095809;28;20171;-84
2024/01/17 02:30:48;;;;;;;10.17;5.57;;;0.30;1.00;;;;;;5095915;28;20207;-84
2024/01/17 02:33:14;;;;;;;9.70;5.87;;;0.20;1.00;;;;;;5097041;28;20210;-83
2024/01/17 02:35:40;;;;;;;10.20;5.90;;;0.20;1.00;;;;;;5095583;28;20176;-84
2024/01/17 02:38:06;;;;;;;11.23;6.60;;;0.20;1.00;;;;;;5097353;28;20184;-83
2024/01/17 02:40:31;;;;;;;8.50;5.33;;;0.10;1.00;;;;;;5098619;28;20179;-83
2024/01/17 02:42:57;;;;;;;11.67;6.00;;;0.10;1.00;;;;;;5100332;28;20727;-83
2024/01/17 02:45:23;;;;;;;12.23;6.50;;;0.20;1.00;;;;;;5102257;28;20242;-83
2024/01/17 02:47:48;;;;;;;11.37;5.90;;;0.10;1.00;;;;;;5100668;28;20328;-85
2024/01/17 02:50:17;;;;;;;8.50;5.50;;;0.20;1.00;;;;;;5095786;28;20171;-85
2024/01/17 02:52:45;;;;;;;9.47;5.87;;;0.20;1.00;;;;;;5093989;28;20175;-84
2024/01/17 02:55:13;;;;;;;8.63;5.93;;;0.20;1.00;;;;;;5095370;28;20178;-83
2024/01/17 02:57:38;;;;;;;11.33;6.60;;;0.20;1.00;;;;;;5093346;28;20194;-84
2024/01/17 03:00:06;;;;;;;9.73;6.20;;;0.30;1.00;;;;;;5095251;28;20519;-82
2024/01/17 03:02:32;;;;;;;9.13;5.87;;;0.50;1.00;;;;;;5094489;28;20222;-85
2024/01/17 03:04:57;;;;;;;13.73;6.37;;;0.60;1.00;;;;;;5094746;28;20171;-83
2024/01/17 03:07:23;;;;;;;8.70;5.97;;;0.70;1.00;;;;;;5094094;28;20538;-83
2024/01/17 03:09:49;;;;;;;10.30;6.07;;;0.70;1.00;;;;;;5096326;28;20172;-84
2024/01/17 03:12:14;;;;;;;8.77;6.50;;;0.90;1.00;;;;;;5111134;28;20168;-84
2024/01/17 03:14:40;;;;;;;9.30;6.30;;;0.90;1.00;;;;;;5112259;28;20199;-84
2024/01/17 03:17:06;;;;;;;10.07;5.83;;;1.00;1.00;;;;;;5095491;28;20659;-83
2024/01/17 03:19:31;;;;;;;8.33;5.63;;;1.00;1.00;;;;;;5093268;28;20172;-83
2024/01/17 03:21:57;;;;;;;11.40;5.97;;;0.90;1.00;;;;;;5094218;28;20225;-83
2024/01/17 03:24:23;;;;;;;8.43;5.53;;;0.90;1.00;;;;;;5094547;28;20652;-83
2024/01/17 03:26:48;;;;;;;9.40;6.07;;;1.00;1.00;;;;;;5094695;28;20608;-82
2024/01/17 03:29:14;;;;;;;9.60;5.87;;;1.00;1.00;;;;;;5093472;28;20163;-83
2024/01/17 03:31:39;;;;;;;8.77;5.73;;;1.20;1.00;;;;;;5094181;28;20225;-83
2024/01/17 03:34:05;;;;;;;11.40;6.60;;;1.10;1.00;;;;;;5094528;28;20191;-85
2024/01/17 03:36:31;;;;;;;9.33;6.37;;;1.30;1.00;;;;;;5093476;28;20176;-84
2024/01/17 03:38:56;;;;;;;7.57;5.63;;;1.30;1.00;;;;;;5094891;28;20172;-84
2024/01/17 03:41:22;;;;;;;11.00;7.10;;;1.30;1.00;;;;;;5094398;28;20175;-84
2024/01/17 03:43:50;;;;;;;11.47;6.73;;;1.30;1.00;;;;;;5093390;28;20219;-84
2024/01/17 03:46:15;;;;;;;9.13;5.73;;;1.40;1.00;;;;;;5093363;28;20182;-83
2024/01/17 03:48:41;;;;;;;9.30;5.83;;;1.40;1.00;;;;;;5093590;28;20171;-83
2024/01/17 03:51:07;;;;;;;10.27;6.33;;;1.60;1.00;;;;;;5093933;28;20175;-83
2024/01/17 03:53:33;;;;;;;10.43;6.53;;;1.50;1.00;;;;;;5094096;28;20213;-83
2024/01/17 03:55:58;;;;;;;9.57;5.50;;;1.50;1.00;;;;;;5093413;28;20187;-83
2024/01/17 03:58:24;;;;;;;10.40;5.93;;;1.50;1.00;;;;;;5094101;28;20180;-84
2024/01/17 04:00:50;;;;;;;10.23;6.40;;;1.50;1.00;;;;;;5095490;28;20171;-83
2024/01/17 04:03:15;;;;;;;9.37;5.83;;;1.60;1.00;;;;;;5105719;28;20203;-83
2024/01/17 04:05:43;;;;;;;7.90;6.03;;;1.70;1.00;;;;;;5101901;28;20167;-83
2024/01/17 04:08:10;;;;;;;12.17;6.00;;;1.60;1.00;;;;;;5093269;28;20635;-84
2024/01/17 04:10:36;;;;;;;7.93;5.67;;;1.60;1.00;;;;;;5093544;28;20180;-82
2024/01/17 04:13:02;;;;;;;10.80;5.93;;;1.50;1.00;;;;;;5093961;28;20266;-83
2024/01/17 04:15:28;;;;;;;9.30;5.93;;;1.50;1.00;;;;;;5091976;28;20532;-83
2024/01/17 04:17:54;;;;;;;9.57;5.40;;;1.50;1.00;;;;;;5093614;28;20196;-83
2024/01/17 04:20:20;;;;;;;8.57;5.90;;;1.50;1.00;;;;;;5092521;28;20212;-83
2024/01/17 04:22:46;;;;;;;10.07;5.60;;;1.60;1.00;;;;;;5093024;28;20306;-82
2024/01/17 04:25:11;;;;;;;12.07;5.63;;;1.50;1.00;;;;;;5093444;28;20174;-83
2024/01/17 04:27:37;;;;;;;7.73;5.20;;;1.50;1.00;;;;;;5092909;28;20640;-85
2024/01/17 04:30:05;;;;;;;8.60;5.20;;;1.50;1.00;;;;;;5092074;28;20258;-83
2024/01/17 04:32:35;;;;;;;6.80;4.60;;;1.60;1.00;;;;;;5094020;28;20167;-84
2024/01/17 04:35:00;;;;;;;9.80;5.27;;;1.50;1.00;;;;;;5093203;28;20174;-83
2024/01/17 04:37:26;;;;;;;7.70;4.77;;;1.40;1.00;;;;;;5092999;28;20282;-84
2024/01/17 04:39:52;;;;;;;9.00;5.47;;;1.40;1.00;;;;;;5092983;28;20176;-83
2024/01/17 04:42:18;;;;;;;6.10;4.60;;;1.30;1.00;;;;;;5092570;28;20554;-84
2024/01/17 04:44:45;;;;;;;7.33;4.80;;;1.30;1.00;;;;;;5091941;28;20175;-84
2024/01/17 04:47:13;;;;;;;7.97;4.90;;;1.40;1.00;;;;;;5093099;28;20172;-84
2024/01/17 04:49:39;;;;;;;13.07;5.47;;;1.50;1.00;;;;;;5092248;28;20199;-84
2024/01/17 04:52:05;;;;;;;9.90;5.60;;;1.60;1.00;;;;;;5092681;28;20206;-83
2024/01/17 04:54:31;;;;;;;11.33;5.70;;;1.60;1.00;;;;;;5092733;28;20214;-83
2024/01/17 04:56:57;;;;;;;7.90;5.70;;;1.60;1.00;;;;;;5091809;28;20183;-84
2024/01/17 04:59:22;;;;;;;6.97;5.10;;;1.70;1.00;;;;;;5093133;28;20210;-84
2024/01/17 05:01:48;;;;;;;7.53;5.00;;;1.90;1.00;;;;;;5092307;28;20627;-82
2024/01/17 05:04:14;;;;;;;8.07;5.23;;;1.80;1.00;;;;;;5092751;28;20183;-83
2024/01/17 05:06:39;;;;;;;8.17;5.23;;;1.80;1.00;;;;;;5090965;28;20190;-84
2024/01/17 05:09:08;;;;;;;10.23;5.63;;;1.90;1.00;;;;;;5092000;28;20211;-83
2024/01/17 05:11:34;;;;;;;8.10;4.80;;;2.10;1.00;;;;;;5092039;28;20171;-84
2024/01/17 05:14:00;;;;;;;9.27;5.70;;;1.80;1.00;;;;;;5091831;28;20531;-83
2024/01/17 05:16:26;;;;;;;7.57;5.20;;;1.80;1.00;;;;;;5091588;28;20662;-83
2024/01/17 05:18:51;;;;;;;9.50;5.73;;;1.90;1.00;;;;;;5091837;28;20702;-84
2024/01/17 05:21:17;;;;;;;11.27;5.70;;;1.80;1.00;;;;;;5092267;28;20168;-83
2024/01/17 05:23:43;;;;;;;11.30;5.33;;;1.70;1.00;;;;;;5091561;28;20211;-84
2024/01/17 05:26:09;;;;;;;7.43;4.87;;;1.60;1.00;;;;;;5091201;28;20222;-84
2024/01/17 05:28:35;;;;;;;8.40;5.27;;;1.50;1.00;;;;;;5091694;28;20545;-84
2024/01/17 05:31:01;;;;;;;8.03;5.20;;;1.50;1.00;;;;;;5092115;28;20170;-83
2024/01/17 05:33:26;;;;;;;7.20;5.03;;;1.70;1.00;;;;;;5091986;28;20172;-85
2024/01/17 05:35:52;;;;;;;11.73;5.90;;;1.70;1.00;;;;;;5091257;28;20176;-83
2024/01/17 05:38:18;;;;;;;8.70;5.57;;;1.80;1.00;;;;;;5094100;28;20179;-83
2024/01/17 05:40:43;;;;;;;7.90;5.60;;;1.90;1.00;;;;;;5094044;28;20271;-84
2024/01/17 05:43:10;;;;;;;7.60;4.80;;;1.80;1.00;;;;;;5110114;28;20211;-82
2024/01/17 05:45:36;;;;;;;8.13;5.07;;;1.70;1.00;;;;;;5102708;28;20658;-83
2024/01/17 05:48:02;;;;;;;7.77;5.63;;;1.90;1.00;;;;;;5091735;28;20171;-83
2024/01/17 05:50:28;;;;;;;6.73;5.47;;;1.90;1.00;;;;;;5092245;28;20176;-84
2024/01/17 05:52:54;;;;;;;8.57;5.17;;;1.90;1.00;;;;;;5091132;28;20258;-84
2024/01/17 05:55:20;;;;;;;10.10;5.30;;;1.90;1.00;;;;;;5091615;28;20620;-84
2024/01/17 05:57:46;;;;;;;9.33;5.60;;;1.80;1.00;;;;;;5090329;28;20195;-85
2024/01/17 06:00:13;;;;;;;11.50;6.30;;;1.80;1.00;;;;;;5091442;28;20182;-84
2024/01/17 06:02:40;;;;;;;9.03;5.37;;;1.90;1.00;;;;;;5090295;28;20549;-84
2024/01/17 06:05:10;;;;;;;8.53;5.50;;;2.00;1.00;;;;;;5091944;28;20171;-84
2024/01/17 06:07:36;;;;;;;7.10;5.00;;;2.10;1.00;;;;;;5091990;28;20193;-85
2024/01/17 06:10:02;;;;;;;10.40;5.70;;;2.10;1.00;;;;;;5093336;28;20171;-83
2024/01/17 06:12:28;;;;;;;11.77;5.10;;;2.10;1.00;;;;;;5097354;28;20282;-83
2024/01/17 06:14:54;;;;;;;8.87;5.73;;;2.00;1.00;;;;;;5096377;28;20192;-84
2024/01/17 06:17:19;;;;;;;9.17;5.60;;;2.00;1.00;;;;;;5097116;28;20231;-84
2024/01/17 06:19:45;;;;;;;7.33;5.27;;;2.00;1.00;;;;;;5091639;28;20180;-85
2024/01/17 06:22:18;;;;;;;8.07;5.67;;;2.00;1.00;;;;;;5090513;28;20210;-85
2024/01/17 06:24:44;;;;;;;8.67;5.80;;;2.10;1.00;;;;;;5091825;28;20164;-84
2024/01/17 06:27:10;;;;;;;9.47;5.70;;;2.10;1.00;;;;;;5091106;28;20545;-84
2024/01/17 06:29:39;;;;;;;8.27;5.50;;;2.10;1.00;;;;;;5091446;28;20167;-85
2024/01/17 06:32:05;;;;;;;8.90;5.53;;;2.10;1.00;;;;;;5091886;28;20566;-84
2024/01/17 06:34:31;;;;;;;8.97;6.33;;;2.20;1.00;;;;;;5090770;28;20263;-86
2024/01/17 06:36:57;;;;;;;8.67;6.10;;;2.10;1.00;;;;;;5090204;28;20271;-84
2024/01/17 06:39:24;;;;;;;8.50;5.53;;;2.20;1.00;;;;;;5091014;28;20179;-83
2024/01/17 06:41:49;;;;;;;9.37;5.63;;;2.00;1.00;;;;;;5090875;28;20168;-84
2024/01/17 06:44:15;;;;;;;12.77;5.73;;;1.80;1.00;;;;;;5093103;28;20248;-82
2024/01/17 06:46:40;;;;;;;8.77;5.80;;;1.60;1.00;;;;;;5092122;28;20180;-84
2024/01/17 06:49:06;;;;;;;10.57;6.40;;;1.60;1.00;;;;;;5089441;28;20176;-83
2024/01/17 06:51:32;;;;;;;10.97;5.73;;;1.40;1.00;;;;;;5089990;28;20252;-82
2024/01/17 06:53:58;;;;;;;8.87;5.30;;;1.60;1.00;;;;;;5093159;28;20714;-84
2024/01/17 06:56:24;;;;;;;9.73;6.13;;;1.50;1.00;;;;;;5093586;28;20191;-84
2024/01/17 06:58:50;;;;;;;7.27;5.47;;;1.50;1.00;;;;;;5093844;28;20174;-83
2024/01/17 07:01:16;;;;;;;10.43;5.97;;;1.60;1.00;;;;;;5094898;28;20172;-84
2024/01/17 07:03:42;;;;;;;9.87;5.73;;;1.60;1.00;;;;;;5094659;28;20275;-85
2024/01/17 07:06:11;;;;;;;8.77;5.80;;;1.50;1.00;;;;;;5094393;28;20167;-86
2024/01/17 07:08:36;;;;;;;9.80;7.10;;;1.40;1.00;;;;;;5094296;28;20179;-87
2024/01/17 07:11:02;;;;;;;13.60;6.97;;;1.40;1.00;;;;;;5094558;28;20304;-83
2024/01/17 07:13:28;;;;;;;12.87;6.83;;;1.30;1.00;;;;;;5094989;28;20324;-81
2024/01/17 07:15:53;;;;;;;12.60;6.10;;;1.50;1.00;;;;;;5094971;28;20159;-86
2024/01/17 07:18:19;;;;;;;14.03;6.77;;;1.40;1.00;;;;;;5087969;28;20195;-83
2024/01/17 07:20:45;;;;;;;8.57;5.63;;;1.50;1.00;;;;;;5093221;28;20187;-84
2024/01/17 07:23:12;;;;;;;9.80;6.23;;;1.40;1.00;;;;;;5096558;28;20235;-84
2024/01/17 07:25:38;;;;;;;11.93;6.97;;;1.50;1.00;;;;;;5097053;28;20267;-82
2024/01/17 07:28:05;;;;;;;9.97;7.30;;;1.80;1.00;;;;;;5094355;28;20258;-83
2024/01/17 07:30:31;;;;;;;9.43;6.53;;;2.00;1.00;;;;;;5094178;28;20168;-84
2024/01/17 07:32:57;;;;;;;14.87;6.87;;;1.90;1.00;;;;;;5095733;28;20653;-84
2024/01/17 07:35:22;;;;;;;10.60;7.27;;;2.00;1.00;;;;;;5089529;28;20179;-85
2024/01/17 07:37:50;;;;;;;9.73;7.13;;;1.90;1.00;;;;;;5092517;28;20245;-84
2024/01/17 07:40:16;;;;;;;14.23;7.80;;;2.10;1.00;;;;;;5091432;28;20604;-84
2024/01/17 07:42:42;;;;;;;12.97;8.67;;;2.10;1.00;;;;;;5083768;28;20210;-82
2024/01/17 07:45:10;;;;;;;11.43;7.70;;;2.10;1.00;;;;;;5082742;28;20259;-81
2024/01/17 07:47:37;;;;;;;9.83;7.40;;;2.10;1.00;;;;;;5086772;28;20191;-83
2024/01/17 07:50:03;;;;;;;12.53;7.73;;;2.40;1.00;;;;;;5090849;28;20536;-82
2024/01/17 07:52:29;;;;;;;12.37;8.47;;;2.30;1.00;;;;;;5091434;28;20163;-83
2024/01/17 07:54:55;;;;;;;12.17;7.83;;;2.30;1.00;;;;;;5086862;28;20191;-82
2024/01/17 07:57:21;;;;;;;14.70;8.07;;;2.40;1.00;;;;;;5089218;28;20214;-82
2024/01/17 07:59:47;;;;;;;17.53;8.13;;;2.50;1.00;;;;;;5089704;28;20199;-83
2024/01/17 08:02:12;;;;;;;10.37;7.30;;;2.30;1.00;;;;;;5089066;28;20214;-81
2024/01/17 08:04:41;;;;;;;13.03;8.00;;;2.00;1.00;;;;;;5089401;28;20647;-81
2024/01/17 08:07:08;;;;;;;12.30;7.67;;;1.90;1.00;;;;;;5089540;28;20222;-84
2024/01/17 08:09:33;;;;;;;10.23;7.33;;;2.20;1.00;;;;;;5087807;28;20332;-83
2024/01/17 08:11:59;;;;;;;11.87;8.30;;;2.20;1.00;;;;;;5088172;28;20213;-83
2024/01/17 08:14:25;;;;;;;14.67;8.67;;;2.20;1.00;;;;;;5089240;28;20541;-84
2024/01/17 08:16:51;;;;;;;15.63;8.20;;;2.20;1.00;;;;;;5088457;28;20333;-82
2024/01/17 08:19:17;;;;;;;13.67;8.63;;;2.40;1.00;;;;;;5089605;28;20180;-82
2024/01/17 08:21:46;;;;;;;18.13;9.07;;;2.30;1.00;;;;;;5087060;28;20183;-83
2024/01/17 08:24:13;;;;;;;10.43;7.90;;;2.30;1.00;;;;;;5089674;28;20175;-83
2024/01/17 08:26:39;;;;;;;13.03;8.90;;;2.40;1.00;;;;;;5088027;28;20254;-82
2024/01/17 08:29:05;;;;;;;11.67;8.03;;;2.40;1.00;;;;;;5090315;28;20185;-83
2024/01/17 08:31:30;;;;;;;14.33;7.27;;;2.30;1.00;;;;;;5089132;28;20172;-82
2024/01/17 08:33:57;;;;;;;10.80;7.73;;;2.50;1.00;;;;;;5089567;28;20179;-84
2024/01/17 08:36:23;;;;;;;11.77;8.23;;;2.50;1.00;;;;;;5088167;28;20183;-83
2024/01/17 08:38:48;;;;;;;10.77;8.20;;;2.40;1.00;;;;;;5089555;28;20175;-83
2024/01/17 08:41:18;;;;;;;12.57;8.07;;;2.50;1.00;;;;;;5085001;28;20265;-83
2024/01/17 08:43:44;;;;;;;13.03;8.03;;;2.40;1.00;;;;;;5087216;28;20241;-86
2024/01/17 08:46:11;;;;;;;12.17;7.70;;;2.30;1.00;;;;;;5086867;28;20203;-86
2024/01/17 08:48:37;;;;;;;16.60;8.60;;;2.30;1.00;;;;;;5086098;28;20610;-84
2024/01/17 08:51:03;;;;;;;11.70;7.63;;;2.30;1.00;;;;;;5081277;28;20171;-83
2024/01/17 08:53:31;;;;;;;10.13;7.40;;;2.20;1.00;;;;;;5087480;28;20209;-85
2024/01/17 08:55:58;;;;;;;11.70;8.17;;;2.10;1.00;;;;;;5084343;28;20218;-84
2024/01/17 08:58:24;;;;;;;14.03;8.10;;;2.10;1.00;;;;;;5084913;28;20608;-83
2024/01/17 09:00:50;;;;;;;11.17;8.10;;;2.10;1.00;;;;;;5087406;28;20167;-84
2024/01/17 09:03:15;;;;;;;11.07;9.10;;;2.30;1.00;;;;;;5086074;28;20215;-83
2024/01/17 09:05:41;;;;;;;12.37;8.73;;;2.50;1.00;;;;;;5093166;28;20535;-82
2024/01/17 09:08:07;;;;;;;17.47;8.70;;;2.70;1.00;;;;;;5089482;28;20176;-82
2024/01/17 09:10:33;;;;;;;15.77;8.40;;;2.80;1.00;;;;;;5092369;28;20179;-83
2024/01/17 09:12:59;;;;;;;13.13;8.53;;;3.10;1.00;;;;;;5103447;28;20183;-86
2024/01/17 09:15:25;;;;;;;14.10;8.60;;;3.00;1.00;;;;;;5098711;28;20187;-83
2024/01/17 09:17:51;;;;;;;12.23;8.77;;;3.10;1.00;;;;;;5088131;28;20306;-83
2024/01/17 09:20:17;;;;;;;13.47;9.27;;;3.20;1.00;;;;;;5087835;28;20699;-85
2024/01/17 09:22:43;;;;;;;14.20;8.63;;;3.10;1.00;;;;;;5089495;28;20238;-83
2024/01/17 09:25:09;;;;;;;16.27;9.23;;;3.10;1.00;;;;;;5087071;28;20175;-85
2024/01/17 09:27:35;;;;;;;11.93;8.50;;;3.10;1.00;;;;;;5088152;28;20258;-87
2024/01/17 09:30:02;;;;;;;17.73;8.80;;;3.20;1.00;;;;;;5095462;28;20167;-87
2024/01/17 09:32:31;;;;;;;14.73;9.03;;;3.10;1.00;;;;;;5091747;28;20186;-88
2024/01/17 09:34:57;;;;;;;11.10;8.43;;;3.10;1.00;;;;;;5088592;28;20197;-86
2024/01/17 09:37:24;;;;;;;13.73;8.90;;;3.10;1.00;;;;;;5089638;28;20274;-91
2024/01/17 09:39:50;;;;;;;14.20;8.73;;;3.20;1.00;;;;;;5089017;28;20180;-87
2024/01/17 09:42:16;;;;;;;14.03;8.97;;;3.30;1.00;;;;;;5088265;28;20674;-87
2024/01/17 09:44:43;;;;;;;13.77;8.20;;;3.30;1.00;;;;;;5092773;28;20179;-87
2024/01/17 09:47:12;;;;;;;14.50;8.67;;;2.90;1.00;;;;;;5098896;28;20233;-83
2024/01/17 09:49:39;;;;;;;15.47;8.07;;;2.90;1.00;;;;;;5088748;28;20188;-81
2024/01/17 09:52:06;;;;;;;16.60;8.87;;;3.30;1.00;;;;;;5089778;28;20164;-83
2024/01/17 09:54:40;;;;;;;13.00;8.97;;;3.30;1.00;;;;;;5101016;28;20185;-86
2024/01/17 09:57:09;;;;;;;15.50;9.33;;;3.10;1.00;;;;;;5100841;28;20187;-85
2024/01/17 09:59:45;;;;;;;15.93;8.60;;;2.60;1.00;;;;;;5096808;28;20175;-87
2024/01/17 10:02:12;;;;;;;13.17;8.13;;;2.30;1.00;;;;;;5095098;28;20230;-85
2024/01/17 10:04:45;;;;;;;14.20;9.30;;;2.60;1.00;;;;;;5098473;28;20180;-88
2024/01/17 10:07:12;;;;;;;15.73;7.80;;;2.60;1.00;;;;;;5097647;28;20620;-84
2024/01/17 10:09:38;;;;;;;14.30;8.63;;;2.80;1.00;;;;;;5090136;28;20779;-80
2024/01/17 10:12:04;;;;;;;10.77;7.67;;;3.10;1.00;;;;;;5088342;28;20258;-86
2024/01/17 10:14:30;;;;;;;17.53;8.73;;;2.70;1.00;;;;;;5088657;28;20210;-86
2024/01/17 10:16:55;;;;;;;15.40;8.93;;;2.20;1.00;;;;;;5085533;28;20222;-85
2024/01/17 10:19:24;;;;;;;14.17;8.97;;;1.80;1.00;;;;;;5090166;28;20213;-86
2024/01/17 10:21:50;;;;;;;18.00;9.93;;;1.60;1.00;;;;;;5093450;28;20175;-86
2024/01/17 10:24:16;;;;;;;12.03;7.30;;;1.50;1.00;;;;;;5088955;28;20186;-84
2024/01/17 10:26:43;;;;;;;16.43;9.23;;;1.40;1.00;;;;;;5087397;28;20647;-85
2024/01/17 10:29:10;;;;;;;13.57;9.37;;;1.30;1.00;;;;;;5088263;28;20175;-85
2024/01/17 10:31:39;;;;;;;18.43;9.67;;;1.20;1.00;;;;;;5092662;28;20183;-84
2024/01/17 10:34:04;;;;;;;14.97;8.93;;;1.20;1.00;;;;;;5092652;28;20175;-83
2024/01/17 10:36:30;;;;;;;19.73;10.87;;;1.30;1.00;;;;;;5091684;28;20172;-84
2024/01/17 10:39:03;;;;;;;17.70;10.53;;;1.20;1.00;;;;;;5092242;28;20186;-84
2024/01/17 10:41:29;;;;;;;14.43;9.60;;;1.30;1.00;;;;;;5091134;28;20538;-85
2024/01/17 10:44:02;;;;;;;15.97;10.90;;;1.10;1.00;;;;;;5091781;28;20222;-84
2024/01/17 10:46:28;;;;;;;19.50;10.47;;;1.10;1.00;;;;;;5091704;28;20267;-84
2024/01/17 10:48:56;;;;;;;18.77;11.20;;;1.00;1.00;;;;;;5091653;28;20179;-85
2024/01/17 10:51:23;;;;;;;18.73;11.57;;;0.90;1.00;;;;;;5091944;28;20206;-85
2024/01/17 10:53:58;;;;;;;18.40;11.23;;;0.90;6.70;;;;;;5091750;28;20171;-87
2024/01/17 10:56:26;;;;;;;19.27;10.80;;;0.90;14.60;;;;;;5091598;28;20218;-84
2024/01/17 10:58:53;;;;;;;16.03;10.40;;;0.90;19.60;;;;;;5093280;28;20167;-84
2024/01/17 11:01:35;;;;;;;17.60;11.63;;;0.80;25.30;;;;;;5091470;28;20233;-86
2024/01/17 11:04:18;;;;;;;16.43;10.97;;;0.70;35.50;;;;;;5092195;28;20207;-86
2024/01/17 11:06:44;;;;;;;18.43;12.03;;;0.70;43.60;;;;;;5090358;28;20554;-86
2024/01/17 11:09:12;;;;;;;16.83;11.13;;;0.50;54.20;;;;;;5094390;28;20195;-85
2024/01/17 11:11:42;;;;;;;17.20;10.93;;;0.50;61.90;;;;;;5096954;28;20175;-84
2024/01/17 11:14:08;;;;;;;20.27;11.93;;;0.60;69.20;;;;;;5095933;28;20191;-85
2024/01/17 11:16:36;;;;;;;17.40;12.03;;;0.60;72.20;;;;;;5095163;28;20188;-83
2024/01/17 11:19:03;;;;;;;18.83;11.83;;;0.50;77.10;;;;;;5092047;28;20239;-85
2024/01/17 11:21:31;;;;;;;18.63;11.70;;;0.50;79.30;;;;;;5093522;28;20559;-85
2024/01/17 11:24:30;;;;;;;21.40;12.40;;;0.50;82.60;;;;;;5100178;28;20561;-84
2024/01/17 11:27:03;;;;;;;18.37;12.77;;;0.60;88.10;;;;;;5057146;28;20233;-86
2024/01/17 11:29:44;;;;;;;16.43;11.30;;;0.60;88.00;;;;;;5093031;28;20655;-84
2024/01/17 11:32:46;;;;;;;23.10;13.20;;;0.50;89.30;;;;;;5093372;28;20179;-86
2024/01/17 11:35:44;;;;;;;20.77;13.20;;;0.30;92.50;;;;;;5090035;28;20654;-86
2024/01/17 11:38:13;;;;;;;18.90;12.17;;;0.20;98.60;;;;;;5089069;28;20179;-85
2024/01/17 11:40:40;;;;;;;21.13;12.87;;;0.10;99.90;;;;;;5091076;28;20183;-84
2024/01/17 11:43:07;;;;;;;17.37;12.63;;;0.00;99.90;;;;;;5091003;28;20283;-86
2024/01/17 11:45:34;;;;;;;21.37;14.63;;;0.00;99.90;;;;;;5091028;28;20244;-86
2024/01/17 11:48:33;;;;;;;20.57;13.47;;;0.00;99.90;;;;;;5091433;28;20206;-85
2024/01/17 11:51:04;;;;;;;20.13;13.37;;;-0.10;99.90;;;;;;5047739;28;20187;-85
2024/01/17 11:53:31;;;;;;;21.67;14.00;;;-0.10;99.90;;;;;;5090599;28;20175;-86
2024/01/17 11:56:00;;;;;;;25.77;15.90;;;-0.10;99.90;;;;;;5090641;28;20523;-85
2024/01/17 11:58:39;;;;;;;20.57;14.03;;;-0.10;99.90;;;;;;5092139;28;20256;-87
2024/01/17 12:01:12;;;;;;;22.77;15.10;;;0.10;99.90;;;;;;5092051;28;20635;-84
2024/01/17 12:03:39;;;;;;;25.00;16.47;;;0.10;99.90;;;;;;5087843;28;20203;-85
2024/01/17 12:06:05;;;;;;;22.70;16.80;;;0.20;99.90;;;;;;5092667;28;20172;-85
2024/01/17 12:08:32;;;;;;;27.93;16.40;;;0.40;99.90;;;;;;5091134;28;20633;-85
2024/01/17 12:10:58;;;;;;;25.67;18.03;;;0.40;99.90;;;;;;5090154;28;20716;-86
2024/01/17 12:13:24;;;;;;;25.60;17.20;;;0.50;99.90;;;;;;5090154;28;20180;-84
2024/01/17 12:15:54;;;;;;;23.80;15.67;;;0.50;99.90;;;;;;5089864;28;20666;-86
2024/01/17 12:18:25;;;;;;;26.17;16.70;;;0.50;99.90;;;;;;5089787;28;20613;-87
2024/01/17 12:20:54;;;;;;;25.23;16.03;;;0.40;99.90;;;;;;5089588;28;20172;-85
2024/01/17 12:23:27;;;;;;;24.37;16.63;;;0.30;99.90;;;;;;5089858;28;20230;-84
2024/01/17 12:25:53;;;;;;;27.97;16.53;;;0.30;99.90;;;;;;5089884;28;20179;-86
2024/01/17 12:28:20;;;;;;;24.60;16.47;;;0.40;99.90;;;;;;5090725;28;20176;-84
2024/01/17 12:31:02;;;;;;;27.97;17.33;;;0.40;99.90;;;;;;5091258;28;20174;-89
2024/01/17 12:33:30;;;;;;;22.40;16.03;;;0.50;99.90;;;;;;5092447;28;20191;-84
2024/01/17 12:35:57;;;;;;;23.13;15.93;;;0.40;99.90;;;;;;5089026;28;20270;-84
2024/01/17 12:38:24;;;;;;;25.73;16.23;;;0.30;99.90;;;;;;5091962;28;20652;-85
2024/01/17 12:40:50;;;;;;;23.57;15.80;;;0.30;99.90;;;;;;5088674;28;20531;-84
2024/01/17 12:43:21;;;;;;;24.10;17.30;;;0.40;99.90;;;;;;5086780;28;20309;-88
2024/01/17 12:45:47;;;;;;;27.07;15.83;;;0.10;99.90;;;;;;5089638;28;20180;-89
2024/01/17 12:48:16;;;;;;;23.27;16.40;;;0.10;99.90;;;;;;5087661;28;20224;-84
2024/01/17 12:50:52;;;;;;;24.30;16.60;;;0.10;99.90;;;;;;5089094;28;20248;-85
2024/01/17 12:53:18;;;;;;;23.57;15.33;;;0.10;99.90;;;;;;5087981;28;20258;-85
2024/01/17 12:55:46;;;;;;;30.70;18.00;;;0.10;99.90;;;;;;5086826;28;20260;-86
2024/01/17 12:58:15;;;;;;;24.47;16.53;;;0.10;99.90;;;;;;5088403;28;20325;-86